sensor_id;sensor_type;location;lat;lon;timestamp;temperature;humidity
43607;DHT22;29197;44.788;10.366;2023-07-30T00:01:42;27.60;99.90
43607;DHT22;29197;44.788;10.366;2023-07-30T00:04:31;27.70;99.90
43607;DHT22;29197;44.788;10.366;2023-07-30T00:07:19;27.70;99.90
43607;DHT22;29197;44.788;10.366;2023-07-30T00:10:08;27.70;99.90
43607;DHT22;29197;44.788;10.366;2023-07-30T00:12:56;27.70;99.90
43607;DHT22;29197;44.788;10.366;2023-07-30T00:15:46;27.70;99.90
43607;DHT22;29197;44.788;10.366;2023-07-30T00:18:36;27.60;99.90
43607;DHT22;29197;44.788;10.366;2023-07-30T00:21:24;27.60;99.90
43607;DHT22;29197;44.788;10.366;2023-07-30T00:24:13;27.50;99.90
43607;DHT22;29197;44.788;10.366;2023-07-30T00:27:01;27.40;99.90
43607;DHT22;29197;44.788;10.366;2023-07-30T00:29:50;27.20;99.90
43607;DHT22;29197;44.788;10.366;2023-07-30T00:32:39;27.10;99.90
43607;DHT22;29197;44.788;10.366;2023-07-30T00:35:33;26.90;99.90
43607;DHT22;29197;44.788;10.366;2023-07-30T00:38:22;26.80;99.90
43607;DHT22;29197;44.788;10.366;2023-07-30T00:41:15;26.80;99.90
43607;DHT22;29197;44.788;10.366;2023-07-30T00:44:04;26.60;99.90
43607;DHT22;29197;44.788;10.366;2023-07-30T00:46:52;26.60;99.90
43607;DHT22;29197;44.788;10.366;2023-07-30T00:49:41;26.60;99.90
43607;DHT22;29197;44.788;10.366;2023-07-30T00:52:32;26.60;99.90
43607;DHT22;29197;44.788;10.366;2023-07-30T00:55:21;26.60;99.90
43607;DHT22;29197;44.788;10.366;2023-07-30T00:58:10;26.60;99.90
43607;DHT22;29197;44.788;10.366;2023-07-30T01:00:59;26.50;99.90
43607;DHT22;29197;44.788;10.366;2023-07-30T01:03:48;26.50;99.90
43607;DHT22;29197;44.788;10.366;2023-07-30T01:06:37;26.50;99.90
43607;DHT22;29197;44.788;10.366;2023-07-30T01:09:27;26.30;99.90
43607;DHT22;29197;44.788;10.366;2023-07-30T01:12:15;26.20;99.90
43607;DHT22;29197;44.788;10.366;2023-07-30T01:15:05;26.20;99.90
43607;DHT22;29197;44.788;10.366;2023-07-30T01:17:54;26.20;99.90
43607;DHT22;29197;44.788;10.366;2023-07-30T01:20:42;26.20;99.90
43607;DHT22;29197;44.788;10.366;2023-07-30T01:23:32;26.20;99.90
43607;DHT22;29197;44.788;10.366;2023-07-30T01:26:24;26.20;99.90
43607;DHT22;29197;44.788;10.366;2023-07-30T01:29:16;26.30;99.90
43607;DHT22;29197;44.788;10.366;2023-07-30T01:32:08;26.30;99.90
43607;DHT22;29197;44.788;10.366;2023-07-30T01:35:00;26.30;99.90
43607;DHT22;29197;44.788;10.366;2023-07-30T01:37:50;26.30;99.90
43607;DHT22;29197;44.788;10.366;2023-07-30T01:40:41;26.10;99.90
43607;DHT22;29197;44.788;10.366;2023-07-30T01:43:30;25.90;99.90
43607;DHT22;29197;44.788;10.366;2023-07-30T01:46:18;25.80;99.90
43607;DHT22;29197;44.788;10.366;2023-07-30T01:49:07;25.90;99.90
43607;DHT22;29197;44.788;10.366;2023-07-30T01:51:55;26.00;99.90
43607;DHT22;29197;44.788;10.366;2023-07-30T01:54:44;25.90;99.90
43607;DHT22;29197;44.788;10.366;2023-07-30T01:57:34;26.00;99.90
43607;DHT22;29197;44.788;10.366;2023-07-30T02:00:22;26.00;99.90
43607;DHT22;29197;44.788;10.366;2023-07-30T02:03:11;26.00;99.90
43607;DHT22;29197;44.788;10.366;2023-07-30T02:06:00;25.90;99.90
43607;DHT22;29197;44.788;10.366;2023-07-30T02:08:48;25.60;99.90
43607;DHT22;29197;44.788;10.366;2023-07-30T02:11:37;25.50;99.90
43607;DHT22;29197;44.788;10.366;2023-07-30T02:14:27;25.50;99.90
43607;DHT22;29197;44.788;10.366;2023-07-30T02:17:16;25.50;99.90
43607;DHT22;29197;44.788;10.366;2023-07-30T02:20:06;25.40;99.90
43607;DHT22;29197;44.788;10.366;2023-07-30T02:22:54;25.40;99.90
43607;DHT22;29197;44.788;10.366;2023-07-30T02:25:43;25.20;99.90
43607;DHT22;29197;44.788;10.366;2023-07-30T02:28:31;25.00;99.90
43607;DHT22;29197;44.788;10.366;2023-07-30T02:31:21;25.10;99.90
43607;DHT22;29197;44.788;10.366;2023-07-30T02:34:10;25.00;99.90
43607;DHT22;29197;44.788;10.366;2023-07-30T02:36:59;25.00;99.90
43607;DHT22;29197;44.788;10.366;2023-07-30T02:39:47;24.70;99.90
43607;DHT22;29197;44.788;10.366;2023-07-30T02:42:36;24.70;99.90
43607;DHT22;29197;44.788;10.366;2023-07-30T02:45:25;24.70;99.90
43607;DHT22;29197;44.788;10.366;2023-07-30T02:48:15;24.50;99.90
43607;DHT22;29197;44.788;10.366;2023-07-30T02:51:03;24.40;99.90
43607;DHT22;29197;44.788;10.366;2023-07-30T02:53:52;24.40;99.90
43607;DHT22;29197;44.788;10.366;2023-07-30T02:56:45;24.60;99.90
43607;DHT22;29197;44.788;10.366;2023-07-30T02:59:33;24.70;99.90
43607;DHT22;29197;44.788;10.366;2023-07-30T03:02:23;24.70;99.90
43607;DHT22;29197;44.788;10.366;2023-07-30T03:05:13;24.60;99.90
43607;DHT22;29197;44.788;10.366;2023-07-30T03:08:02;24.70;99.90
43607;DHT22;29197;44.788;10.366;2023-07-30T03:10:50;24.90;99.90
43607;DHT22;29197;44.788;10.366;2023-07-30T03:13:39;24.80;99.90
43607;DHT22;29197;44.788;10.366;2023-07-30T03:16:27;24.80;99.90
43607;DHT22;29197;44.788;10.366;2023-07-30T03:19:16;24.70;99.90
43607;DHT22;29197;44.788;10.366;2023-07-30T03:22:06;24.60;99.90
43607;DHT22;29197;44.788;10.366;2023-07-30T03:24:54;24.50;99.90
43607;DHT22;29197;44.788;10.366;2023-07-30T03:27:43;24.70;99.90
43607;DHT22;29197;44.788;10.366;2023-07-30T03:30:31;24.70;99.90
43607;DHT22;29197;44.788;10.366;2023-07-30T03:33:20;24.60;99.90
43607;DHT22;29197;44.788;10.366;2023-07-30T03:36:09;24.60;99.90
43607;DHT22;29197;44.788;10.366;2023-07-30T03:38:59;24.70;99.90
43607;DHT22;29197;44.788;10.366;2023-07-30T03:41:48;24.60;99.90
43607;DHT22;29197;44.788;10.366;2023-07-30T03:44:36;24.60;99.90
43607;DHT22;29197;44.788;10.366;2023-07-30T03:47:25;24.70;99.90
43607;DHT22;29197;44.788;10.366;2023-07-30T03:50:13;24.70;99.90
43607;DHT22;29197;44.788;10.366;2023-07-30T03:53:02;24.70;99.90
43607;DHT22;29197;44.788;10.366;2023-07-30T03:55:53;24.80;99.90
43607;DHT22;29197;44.788;10.366;2023-07-30T03:58:42;24.70;99.90
43607;DHT22;29197;44.788;10.366;2023-07-30T04:01:30;24.50;99.90
43607;DHT22;29197;44.788;10.366;2023-07-30T04:04:19;24.50;99.90
43607;DHT22;29197;44.788;10.366;2023-07-30T04:07:07;24.50;99.90
43607;DHT22;29197;44.788;10.366;2023-07-30T04:09:56;24.50;99.90
43607;DHT22;29197;44.788;10.366;2023-07-30T04:12:46;24.60;99.90
43607;DHT22;29197;44.788;10.366;2023-07-30T04:15:34;24.70;99.90
43607;DHT22;29197;44.788;10.366;2023-07-30T04:18:23;24.90;99.90
43607;DHT22;29197;44.788;10.366;2023-07-30T04:21:12;25.00;99.90
43607;DHT22;29197;44.788;10.366;2023-07-30T04:24:00;25.00;99.90
43607;DHT22;29197;44.788;10.366;2023-07-30T04:26:49;25.10;99.90
43607;DHT22;29197;44.788;10.366;2023-07-30T04:29:39;25.00;99.90
43607;DHT22;29197;44.788;10.366;2023-07-30T04:32:27;24.80;99.90
43607;DHT22;29197;44.788;10.366;2023-07-30T04:35:16;24.80;99.90
43607;DHT22;29197;44.788;10.366;2023-07-30T04:38:05;24.70;99.90
43607;DHT22;29197;44.788;10.366;2023-07-30T04:40:53;24.70;99.90
43607;DHT22;29197;44.788;10.366;2023-07-30T04:43:42;24.60;99.90
43607;DHT22;29197;44.788;10.366;2023-07-30T04:46:31;24.60;99.90
43607;DHT22;29197;44.788;10.366;2023-07-30T04:49:21;24.60;99.90
43607;DHT22;29197;44.788;10.366;2023-07-30T04:52:09;24.90;99.90
43607;DHT22;29197;44.788;10.366;2023-07-30T04:54:58;25.10;99.90
43607;DHT22;29197;44.788;10.366;2023-07-30T04:57:47;25.30;99.90
43607;DHT22;29197;44.788;10.366;2023-07-30T05:00:35;25.40;99.90
43607;DHT22;29197;44.788;10.366;2023-07-30T05:03:25;25.50;99.90
43607;DHT22;29197;44.788;10.366;2023-07-30T05:06:14;25.70;99.90
43607;DHT22;29197;44.788;10.366;2023-07-30T05:09:02;25.90;99.90
43607;DHT22;29197;44.788;10.366;2023-07-30T05:11:51;26.00;99.90
43607;DHT22;29197;44.788;10.366;2023-07-30T05:14:39;26.20;99.90
43607;DHT22;29197;44.788;10.366;2023-07-30T05:17:28;26.30;99.90
43607;DHT22;29197;44.788;10.366;2023-07-30T05:20:18;26.30;99.90
43607;DHT22;29197;44.788;10.366;2023-07-30T05:23:07;26.40;99.90
43607;DHT22;29197;44.788;10.366;2023-07-30T05:25:56;26.40;99.90
43607;DHT22;29197;44.788;10.366;2023-07-30T05:28:44;26.40;99.90
43607;DHT22;29197;44.788;10.366;2023-07-30T05:31:34;26.30;99.90
43607;DHT22;29197;44.788;10.366;2023-07-30T05:34:23;26.30;99.90
43607;DHT22;29197;44.788;10.366;2023-07-30T05:37:13;26.40;99.90
43607;DHT22;29197;44.788;10.366;2023-07-30T05:40:02;26.60;99.90
43607;DHT22;29197;44.788;10.366;2023-07-30T05:42:50;26.40;99.90
43607;DHT22;29197;44.788;10.366;2023-07-30T05:45:39;26.50;99.90
43607;DHT22;29197;44.788;10.366;2023-07-30T05:48:28;26.50;99.90
43607;DHT22;29197;44.788;10.366;2023-07-30T05:51:16;26.50;99.90
43607;DHT22;29197;44.788;10.366;2023-07-30T05:54:06;26.40;99.90
43607;DHT22;29197;44.788;10.366;2023-07-30T05:56:55;26.40;99.90
43607;DHT22;29197;44.788;10.366;2023-07-30T05:59:43;26.50;99.90
43607;DHT22;29197;44.788;10.366;2023-07-30T06:02:32;26.50;99.90
43607;DHT22;29197;44.788;10.366;2023-07-30T06:05:20;26.40;99.90
43607;DHT22;29197;44.788;10.366;2023-07-30T06:08:09;26.40;99.90
43607;DHT22;29197;44.788;10.366;2023-07-30T06:11:02;26.40;99.90
43607;DHT22;29197;44.788;10.366;2023-07-30T06:13:51;26.50;99.90
43607;DHT22;29197;44.788;10.366;2023-07-30T06:16:39;26.50;99.90
43607;DHT22;29197;44.788;10.366;2023-07-30T06:19:28;26.60;99.90
43607;DHT22;29197;44.788;10.366;2023-07-30T06:22:17;26.60;99.90
43607;DHT22;29197;44.788;10.366;2023-07-30T06:25:06;26.60;99.90
43607;DHT22;29197;44.788;10.366;2023-07-30T06:27:56;26.90;99.90
43607;DHT22;29197;44.788;10.366;2023-07-30T06:30:46;26.80;99.90
43607;DHT22;29197;44.788;10.366;2023-07-30T06:33:34;26.80;99.90
43607;DHT22;29197;44.788;10.366;2023-07-30T06:36:23;26.90;99.90
43607;DHT22;29197;44.788;10.366;2023-07-30T06:39:11;26.90;99.90
43607;DHT22;29197;44.788;10.366;2023-07-30T06:42:00;27.10;99.90
43607;DHT22;29197;44.788;10.366;2023-07-30T06:44:50;27.20;99.90
43607;DHT22;29197;44.788;10.366;2023-07-30T06:47:38;27.40;99.90
43607;DHT22;29197;44.788;10.366;2023-07-30T06:50:27;27.40;99.90
43607;DHT22;29197;44.788;10.366;2023-07-30T06:53:15;27.50;99.90
43607;DHT22;29197;44.788;10.366;2023-07-30T06:58:53;27.70;99.90
43607;DHT22;29197;44.788;10.366;2023-07-30T07:01:43;27.80;99.90
43607;DHT22;29197;44.788;10.366;2023-07-30T07:04:31;28.00;99.90
43607;DHT22;29197;44.788;10.366;2023-07-30T07:07:20;28.00;99.90
43607;DHT22;29197;44.788;10.366;2023-07-30T07:10:09;28.10;99.90
43607;DHT22;29197;44.788;10.366;2023-07-30T07:12:58;28.20;99.90
43607;DHT22;29197;44.788;10.366;2023-07-30T07:15:47;28.20;99.90
43607;DHT22;29197;44.788;10.366;2023-07-30T07:18:37;28.30;99.90
43607;DHT22;29197;44.788;10.366;2023-07-30T07:21:25;28.30;99.90
43607;DHT22;29197;44.788;10.366;2023-07-30T07:24:14;28.50;99.90
43607;DHT22;29197;44.788;10.366;2023-07-30T07:27:04;28.40;99.90
43607;DHT22;29197;44.788;10.366;2023-07-30T07:29:52;28.30;99.90
43607;DHT22;29197;44.788;10.366;2023-07-30T07:32:41;28.40;99.90
43607;DHT22;29197;44.788;10.366;2023-07-30T07:35:31;28.50;99.90
43607;DHT22;29197;44.788;10.366;2023-07-30T07:38:19;28.60;99.90
43607;DHT22;29197;44.788;10.366;2023-07-30T07:41:14;28.50;99.90
43607;DHT22;29197;44.788;10.366;2023-07-30T07:44:03;28.60;99.90
43607;DHT22;29197;44.788;10.366;2023-07-30T07:46:52;28.60;99.90
43607;DHT22;29197;44.788;10.366;2023-07-30T07:49:40;28.60;99.90
43607;DHT22;29197;44.788;10.366;2023-07-30T07:52:30;28.70;99.90
43607;DHT22;29197;44.788;10.366;2023-07-30T07:55:19;28.80;99.90
43607;DHT22;29197;44.788;10.366;2023-07-30T07:58:07;28.90;99.90
43607;DHT22;29197;44.788;10.366;2023-07-30T08:00:56;28.90;99.90
43607;DHT22;29197;44.788;10.366;2023-07-30T08:03:45;29.10;99.90
43607;DHT22;29197;44.788;10.366;2023-07-30T08:06:34;29.10;99.90
43607;DHT22;29197;44.788;10.366;2023-07-30T08:09:24;29.10;99.90
43607;DHT22;29197;44.788;10.366;2023-07-30T08:12:12;29.10;99.90
43607;DHT22;29197;44.788;10.366;2023-07-30T08:15:01;29.00;99.90
43607;DHT22;29197;44.788;10.366;2023-07-30T08:17:49;29.00;99.90
43607;DHT22;29197;44.788;10.366;2023-07-30T08:20:38;28.90;99.90
43607;DHT22;29197;44.788;10.366;2023-07-30T08:23:27;28.80;99.90
43607;DHT22;29197;44.788;10.366;2023-07-30T08:26:17;28.80;99.90
43607;DHT22;29197;44.788;10.366;2023-07-30T08:29:05;28.80;99.90
43607;DHT22;29197;44.788;10.366;2023-07-30T08:31:57;28.80;99.90
43607;DHT22;29197;44.788;10.366;2023-07-30T08:34:46;28.80;99.90
43607;DHT22;29197;44.788;10.366;2023-07-30T08:37:35;28.70;99.90
43607;DHT22;29197;44.788;10.366;2023-07-30T08:40:24;28.60;99.90
43607;DHT22;29197;44.788;10.366;2023-07-30T08:43:14;28.70;99.90
43607;DHT22;29197;44.788;10.366;2023-07-30T08:46:03;28.80;99.90
43607;DHT22;29197;44.788;10.366;2023-07-30T08:48:52;28.80;99.90
43607;DHT22;29197;44.788;10.366;2023-07-30T08:51:41;28.90;99.90
43607;DHT22;29197;44.788;10.366;2023-07-30T08:54:31;29.00;99.90
43607;DHT22;29197;44.788;10.366;2023-07-30T08:57:20;29.10;99.90
43607;DHT22;29197;44.788;10.366;2023-07-30T09:00:12;29.10;99.90
43607;DHT22;29197;44.788;10.366;2023-07-30T09:03:04;29.10;99.90
43607;DHT22;29197;44.788;10.366;2023-07-30T09:08:41;29.20;99.90
43607;DHT22;29197;44.788;10.366;2023-07-30T09:11:30;29.20;99.90
43607;DHT22;29197;44.788;10.366;2023-07-30T09:14:19;29.20;99.90
43607;DHT22;29197;44.788;10.366;2023-07-30T09:19:59;29.30;99.90
43607;DHT22;29197;44.788;10.366;2023-07-30T09:22:48;29.30;99.90
43607;DHT22;29197;44.788;10.366;2023-07-30T09:25:37;29.40;99.90
43607;DHT22;29197;44.788;10.366;2023-07-30T09:28:30;29.40;99.90
43607;DHT22;29197;44.788;10.366;2023-07-30T09:31:19;29.50;99.90
43607;DHT22;29197;44.788;10.366;2023-07-30T09:34:10;29.50;99.90
43607;DHT22;29197;44.788;10.366;2023-07-30T09:37:02;29.50;99.90
43607;DHT22;29197;44.788;10.366;2023-07-30T09:42:43;29.70;99.90
43607;DHT22;29197;44.788;10.366;2023-07-30T09:45:34;29.70;99.90
43607;DHT22;29197;44.788;10.366;2023-07-30T09:48:23;29.70;99.90
43607;DHT22;29197;44.788;10.366;2023-07-30T09:51:13;29.70;99.90
43607;DHT22;29197;44.788;10.366;2023-07-30T09:54:03;29.80;99.90
43607;DHT22;29197;44.788;10.366;2023-07-30T09:56:51;29.70;99.90
43607;DHT22;29197;44.788;10.366;2023-07-30T09:59:40;29.70;99.90
43607;DHT22;29197;44.788;10.366;2023-07-30T10:02:29;29.80;99.90
43607;DHT22;29197;44.788;10.366;2023-07-30T10:05:20;29.80;99.90
43607;DHT22;29197;44.788;10.366;2023-07-30T10:08:16;30.00;99.90
43607;DHT22;29197;44.788;10.366;2023-07-30T10:11:08;30.10;99.90
43607;DHT22;29197;44.788;10.366;2023-07-30T10:13:58;30.20;99.90
43607;DHT22;29197;44.788;10.366;2023-07-30T10:16:50;30.20;99.90
43607;DHT22;29197;44.788;10.366;2023-07-30T10:19:39;30.20;99.90
43607;DHT22;29197;44.788;10.366;2023-07-30T10:22:28;30.30;99.90
43607;DHT22;29197;44.788;10.366;2023-07-30T10:25:20;30.40;99.90
43607;DHT22;29197;44.788;10.366;2023-07-30T10:28:10;30.50;99.90
43607;DHT22;29197;44.788;10.366;2023-07-30T10:31:14;30.50;99.90
43607;DHT22;29197;44.788;10.366;2023-07-30T10:34:07;30.60;99.90
43607;DHT22;29197;44.788;10.366;2023-07-30T10:36:56;30.60;99.90
43607;DHT22;29197;44.788;10.366;2023-07-30T10:39:48;30.70;99.90
43607;DHT22;29197;44.788;10.366;2023-07-30T10:42:38;30.80;99.90
43607;DHT22;29197;44.788;10.366;2023-07-30T10:45:26;30.80;99.90
43607;DHT22;29197;44.788;10.366;2023-07-30T10:48:16;30.90;99.90
43607;DHT22;29197;44.788;10.366;2023-07-30T10:51:06;30.90;99.90
43607;DHT22;29197;44.788;10.366;2023-07-30T10:56:44;31.10;99.90
43607;DHT22;29197;44.788;10.366;2023-07-30T10:59:35;31.20;99.90
43607;DHT22;29197;44.788;10.366;2023-07-30T11:02:24;31.40;99.90
43607;DHT22;29197;44.788;10.366;2023-07-30T11:05:13;31.40;99.90
43607;DHT22;29197;44.788;10.366;2023-07-30T11:08:02;31.50;99.90
43607;DHT22;29197;44.788;10.366;2023-07-30T11:10:50;31.60;99.90
43607;DHT22;29197;44.788;10.366;2023-07-30T11:13:41;31.50;99.90
43607;DHT22;29197;44.788;10.366;2023-07-30T11:16:31;31.70;99.90
43607;DHT22;29197;44.788;10.366;2023-07-30T11:19:23;31.70;99.90
43607;DHT22;29197;44.788;10.366;2023-07-30T11:25:00;31.90;99.90
43607;DHT22;29197;44.788;10.366;2023-07-30T11:27:53;32.20;99.90
43607;DHT22;29197;44.788;10.366;2023-07-30T11:30:41;32.40;99.90
43607;DHT22;29197;44.788;10.366;2023-07-30T11:33:32;32.50;99.90
43607;DHT22;29197;44.788;10.366;2023-07-30T11:36:22;32.60;99.90
43607;DHT22;29197;44.788;10.366;2023-07-30T11:39:12;32.70;99.90
43607;DHT22;29197;44.788;10.366;2023-07-30T11:42:01;32.80;99.90
43607;DHT22;29197;44.788;10.366;2023-07-30T11:47:39;33.10;99.90
43607;DHT22;29197;44.788;10.366;2023-07-30T11:53:18;33.60;99.90
43607;DHT22;29197;44.788;10.366;2023-07-30T11:56:07;33.60;99.90
43607;DHT22;29197;44.788;10.366;2023-07-30T11:58:58;33.80;99.90
43607;DHT22;29197;44.788;10.366;2023-07-30T12:01:47;34.00;99.90
43607;DHT22;29197;44.788;10.366;2023-07-30T12:04:43;34.00;99.90
43607;DHT22;29197;44.788;10.366;2023-07-30T12:07:44;34.20;99.90
43607;DHT22;29197;44.788;10.366;2023-07-30T12:10:41;34.20;99.90
43607;DHT22;29197;44.788;10.366;2023-07-30T12:13:32;34.30;99.90
43607;DHT22;29197;44.788;10.366;2023-07-30T12:16:20;34.20;99.90
43607;DHT22;29197;44.788;10.366;2023-07-30T12:19:09;34.30;99.90
43607;DHT22;29197;44.788;10.366;2023-07-30T12:21:58;34.30;99.90
43607;DHT22;29197;44.788;10.366;2023-07-30T12:24:47;34.20;99.90
43607;DHT22;29197;44.788;10.366;2023-07-30T12:27:36;34.20;99.90
43607;DHT22;29197;44.788;10.366;2023-07-30T12:30:25;34.40;99.90
43607;DHT22;29197;44.788;10.366;2023-07-30T12:33:14;34.60;99.90
43607;DHT22;29197;44.788;10.366;2023-07-30T12:36:04;34.70;99.90
43607;DHT22;29197;44.788;10.366;2023-07-30T12:38:53;34.90;99.90
43607;DHT22;29197;44.788;10.366;2023-07-30T12:41:43;35.10;99.90
43607;DHT22;29197;44.788;10.366;2023-07-30T12:44:31;35.30;99.90
43607;DHT22;29197;44.788;10.366;2023-07-30T12:47:20;35.50;99.90
43607;DHT22;29197;44.788;10.366;2023-07-30T12:55:46;35.70;99.90
43607;DHT22;29197;44.788;10.366;2023-07-30T12:58:36;35.60;99.90
43607;DHT22;29197;44.788;10.366;2023-07-30T13:01:25;35.80;99.90
43607;DHT22;29197;44.788;10.366;2023-07-30T13:04:13;35.80;99.90
43607;DHT22;29197;44.788;10.366;2023-07-30T13:07:02;35.80;99.90
43607;DHT22;29197;44.788;10.366;2023-07-30T13:10:02;35.90;99.90
43607;DHT22;29197;44.788;10.366;2023-07-30T13:12:51;36.00;99.90
43607;DHT22;29197;44.788;10.366;2023-07-30T13:15:40;36.00;99.90
43607;DHT22;29197;44.788;10.366;2023-07-30T13:18:29;36.00;99.90
43607;DHT22;29197;44.788;10.366;2023-07-30T13:21:18;35.80;99.90
43607;DHT22;29197;44.788;10.366;2023-07-30T13:24:06;35.70;99.90
43607;DHT22;29197;44.788;10.366;2023-07-30T13:26:55;35.70;99.90
43607;DHT22;29197;44.788;10.366;2023-07-30T13:29:43;35.80;99.90
43607;DHT22;29197;44.788;10.366;2023-07-30T13:32:33;35.90;99.90
43607;DHT22;29197;44.788;10.366;2023-07-30T13:35:22;36.00;99.90
43607;DHT22;29197;44.788;10.366;2023-07-30T13:38:10;36.10;99.90
43607;DHT22;29197;44.788;10.366;2023-07-30T13:40:59;36.10;99.90
43607;DHT22;29197;44.788;10.366;2023-07-30T13:43:48;36.10;99.90
43607;DHT22;29197;44.788;10.366;2023-07-30T13:46:36;36.10;99.90
43607;DHT22;29197;44.788;10.366;2023-07-30T13:49:26;36.10;99.90
43607;DHT22;29197;44.788;10.366;2023-07-30T13:52:15;36.00;99.90
43607;DHT22;29197;44.788;10.366;2023-07-30T13:55:04;35.80;99.90
43607;DHT22;29197;44.788;10.366;2023-07-30T13:57:53;35.50;99.90
43607;DHT22;29197;44.788;10.366;2023-07-30T14:00:42;35.00;99.90
43607;DHT22;29197;44.788;10.366;2023-07-30T14:06:20;34.40;99.90
43607;DHT22;29197;44.788;10.366;2023-07-30T14:09:09;34.60;99.90
43607;DHT22;29197;44.788;10.366;2023-07-30T14:11:58;34.90;99.90
43607;DHT22;29197;44.788;10.366;2023-07-30T14:14:46;35.20;99.90
43607;DHT22;29197;44.788;10.366;2023-07-30T14:17:35;35.50;99.90
43607;DHT22;29197;44.788;10.366;2023-07-30T14:20:23;35.60;99.90
43607;DHT22;29197;44.788;10.366;2023-07-30T14:23:13;35.70;99.90
43607;DHT22;29197;44.788;10.366;2023-07-30T14:26:02;35.70;99.90
43607;DHT22;29197;44.788;10.366;2023-07-30T14:28:51;35.80;99.90
43607;DHT22;29197;44.788;10.366;2023-07-30T14:31:39;35.80;99.90
43607;DHT22;29197;44.788;10.366;2023-07-30T14:34:28;35.90;99.90
43607;DHT22;29197;44.788;10.366;2023-07-30T14:37:17;35.90;99.90
43607;DHT22;29197;44.788;10.366;2023-07-30T14:40:08;35.90;99.90
43607;DHT22;29197;44.788;10.366;2023-07-30T14:42:57;35.70;99.90
43607;DHT22;29197;44.788;10.366;2023-07-30T14:45:45;35.60;99.90
43607;DHT22;29197;44.788;10.366;2023-07-30T14:48:34;35.30;99.90
43607;DHT22;29197;44.788;10.366;2023-07-30T14:51:23;35.00;99.90
43607;DHT22;29197;44.788;10.366;2023-07-30T14:54:12;34.80;99.90
43607;DHT22;29197;44.788;10.366;2023-07-30T14:57:02;34.80;99.90
43607;DHT22;29197;44.788;10.366;2023-07-30T14:59:51;34.80;99.90
43607;DHT22;29197;44.788;10.366;2023-07-30T15:02:40;34.70;99.90
43607;DHT22;29197;44.788;10.366;2023-07-30T15:05:29;34.80;99.90
43607;DHT22;29197;44.788;10.366;2023-07-30T15:08:17;34.90;99.90
43607;DHT22;29197;44.788;10.366;2023-07-30T15:11:06;35.00;99.90
43607;DHT22;29197;44.788;10.366;2023-07-30T15:13:56;35.00;99.90
43607;DHT22;29197;44.788;10.366;2023-07-30T15:16:44;35.10;99.90
43607;DHT22;29197;44.788;10.366;2023-07-30T15:19:33;35.10;99.90
43607;DHT22;29197;44.788;10.366;2023-07-30T15:22:21;35.10;99.90
43607;DHT22;29197;44.788;10.366;2023-07-30T15:25:10;35.00;99.90
43607;DHT22;29197;44.788;10.366;2023-07-30T15:27:59;34.90;99.90
43607;DHT22;29197;44.788;10.366;2023-07-30T15:30:50;34.80;99.90
43607;DHT22;29197;44.788;10.366;2023-07-30T15:33:39;34.80;99.90
43607;DHT22;29197;44.788;10.366;2023-07-30T15:36:27;34.60;99.90
43607;DHT22;29197;44.788;10.366;2023-07-30T15:39:19;34.50;99.90
43607;DHT22;29197;44.788;10.366;2023-07-30T15:42:08;34.50;99.90
43607;DHT22;29197;44.788;10.366;2023-07-30T15:44:56;34.50;99.90
43607;DHT22;29197;44.788;10.366;2023-07-30T15:47:46;34.50;99.90
43607;DHT22;29197;44.788;10.366;2023-07-30T15:50:35;34.50;99.90
43607;DHT22;29197;44.788;10.366;2023-07-30T15:53:23;34.40;99.90
43607;DHT22;29197;44.788;10.366;2023-07-30T15:56:12;34.40;99.90
43607;DHT22;29197;44.788;10.366;2023-07-30T15:59:01;34.50;99.90
43607;DHT22;29197;44.788;10.366;2023-07-30T16:01:50;34.30;99.90
43607;DHT22;29197;44.788;10.366;2023-07-30T16:04:40;34.30;99.90
43607;DHT22;29197;44.788;10.366;2023-07-30T16:07:28;34.20;99.90
43607;DHT22;29197;44.788;10.366;2023-07-30T16:10:17;34.10;99.90
43607;DHT22;29197;44.788;10.366;2023-07-30T16:13:05;34.00;99.90
43607;DHT22;29197;44.788;10.366;2023-07-30T16:15:54;33.80;99.90
43607;DHT22;29197;44.788;10.366;2023-07-30T16:18:45;33.80;99.90
43607;DHT22;29197;44.788;10.366;2023-07-30T16:21:35;33.70;99.90
43607;DHT22;29197;44.788;10.366;2023-07-30T16:24:24;33.60;99.90
43607;DHT22;29197;44.788;10.366;2023-07-30T16:27:12;33.60;99.90
43607;DHT22;29197;44.788;10.366;2023-07-30T16:30:01;33.50;99.90
43607;DHT22;29197;44.788;10.366;2023-07-30T16:32:51;33.50;99.90
43607;DHT22;29197;44.788;10.366;2023-07-30T16:35:39;33.40;99.90
43607;DHT22;29197;44.788;10.366;2023-07-30T16:38:29;33.40;99.90
43607;DHT22;29197;44.788;10.366;2023-07-30T16:41:18;33.30;99.90
43607;DHT22;29197;44.788;10.366;2023-07-30T16:44:07;33.30;99.90
43607;DHT22;29197;44.788;10.366;2023-07-30T16:46:56;33.30;99.90
43607;DHT22;29197;44.788;10.366;2023-07-30T16:49:48;33.20;99.90
43607;DHT22;29197;44.788;10.366;2023-07-30T16:52:36;33.20;99.90
43607;DHT22;29197;44.788;10.366;2023-07-30T16:55:30;33.10;99.90
43607;DHT22;29197;44.788;10.366;2023-07-30T16:58:19;33.00;99.90
43607;DHT22;29197;44.788;10.366;2023-07-30T17:01:08;33.00;99.90
43607;DHT22;29197;44.788;10.366;2023-07-30T17:03:56;33.00;99.90
43607;DHT22;29197;44.788;10.366;2023-07-30T17:06:45;32.90;99.90
43607;DHT22;29197;44.788;10.366;2023-07-30T17:09:34;32.80;99.90
43607;DHT22;29197;44.788;10.366;2023-07-30T17:12:24;32.80;99.90
43607;DHT22;29197;44.788;10.366;2023-07-30T17:15:13;32.70;99.90
43607;DHT22;29197;44.788;10.366;2023-07-30T17:18:01;32.60;99.90
43607;DHT22;29197;44.788;10.366;2023-07-30T17:20:55;32.40;99.90
43607;DHT22;29197;44.788;10.366;2023-07-30T17:23:44;32.40;99.90
43607;DHT22;29197;44.788;10.366;2023-07-30T17:26:34;32.30;99.90
43607;DHT22;29197;44.788;10.366;2023-07-30T17:29:24;32.30;99.90
43607;DHT22;29197;44.788;10.366;2023-07-30T17:32:13;32.30;99.90
43607;DHT22;29197;44.788;10.366;2023-07-30T17:35:01;32.30;99.90
43607;DHT22;29197;44.788;10.366;2023-07-30T17:37:51;32.20;99.90
43607;DHT22;29197;44.788;10.366;2023-07-30T17:40:40;32.20;99.90
43607;DHT22;29197;44.788;10.366;2023-07-30T17:43:36;32.10;99.90
43607;DHT22;29197;44.788;10.366;2023-07-30T17:46:27;32.10;99.90
43607;DHT22;29197;44.788;10.366;2023-07-30T17:49:15;32.10;99.90
43607;DHT22;29197;44.788;10.366;2023-07-30T17:52:04;32.00;99.90
43607;DHT22;29197;44.788;10.366;2023-07-30T17:54:53;32.00;99.90
43607;DHT22;29197;44.788;10.366;2023-07-30T17:57:42;32.00;99.90
43607;DHT22;29197;44.788;10.366;2023-07-30T18:00:30;31.90;99.90
43607;DHT22;29197;44.788;10.366;2023-07-30T18:03:20;31.90;99.90